Time,TemperatureF,DewpointF,PressureIn,WindDirection,WindDirectionDegrees,WindSpeedMPH,WindSpeedGustMPH,Humidity,HourlyPrecipIn,Conditions,Clouds,dailyrainin,SoftwareType,DateUTC
2013-05-15 00:13:00,46.3,41.0,29.36,NNE,19,0.0,-999.0,83,-99.99,,,0.00,weatherlink.com 1.10,2013-05-14 23:13:00,
2013-05-15 00:28:00,46.3,41.0,29.36,ENE,69,0.0,-999.0,82,-99.99,,,0.00,weatherlink.com 1.10,2013-05-14 23:28:00,
2013-05-15 00:43:00,46.5,41.0,29.36,NE,36,0.0,-999.0,81,-99.99,,,0.00,weatherlink.com 1.10,2013-05-14 23:43:00,
2013-05-15 00:58:00,46.5,41.0,29.37,North,355,0.0,-999.0,81,-99.99,,,0.00,weatherlink.com 1.10,2013-05-14 23:58:00,
2013-05-15 01:13:00,45.9,39.0,29.37,NNE,15,0.0,-999.0,78,-99.99,,,0.00,weatherlink.com 1.10,2013-05-15 00:13:00,
2013-05-15 01:28:00,45.3,39.0,29.37,North,5,0.0,-999.0,79,-99.99,,,0.00,weatherlink.com 1.10,2013-05-15 00:28:00,
2013-05-15 01:43:00,44.8,39.0,29.37,NNW,348,0.0,-999.0,81,-99.99,,,0.00,weatherlink.com 1.10,2013-05-15 00:43:00,
2013-05-15 01:58:00,44.4,40.0,29.38,NE,44,0.0,-999.0,83,-99.99,,,0.00,weatherlink.com 1.10,2013-05-15 00:58:00,
2013-05-15 02:13:00,44.0,39.0,29.37,North,355,0.0,-999.0,83,-99.99,,,0.00,weatherlink.com 1.10,2013-05-15 01:13:00,
2013-05-15 02:28:00,43.7,39.0,29.37,NW,324,0.0,-999.0,84,-99.99,,,0.00,weatherlink.com 1.10,2013-05-15 01:28:00,
2013-05-15 02:44:00,43.5,39.0,29.38,NNW,334,0.0,-999.0,85,-99.99,,,0.00,weatherlink.com 1.10,2013-05-15 01:44:00,
2013-05-15 02:59:00,43.4,39.0,29.37,NW,315,0.0,-999.0,85,-99.99,,,0.00,weatherlink.com 1.10,2013-05-15 01:59:00,
2013-05-15 03:14:00,43.2,39.0,29.38,NNW,328,0.0,-999.0,85,-99.99,,,0.00,weatherlink.com 1.10,2013-05-15 02:14:00,
2013-05-15 03:29:00,43.0,39.0,29.38,WNW,288,0.0,-999.0,84,-99.99,,,0.00,weatherlink.com 1.10,2013-05-15 02:29:00,
2013-05-15 03:44:00,42.8,39.0,29.38,NNW,339,0.0,-999.0,85,-99.99,,,0.00,weatherlink.com 1.10,2013-05-15 02:44:00,
2013-05-15 03:59:00,42.7,39.0,29.38,NW,323,0.0,-999.0,85,-99.99,,,0.00,weatherlink.com 1.10,2013-05-15 02:59:00,
2013-05-15 04:14:00,42.7,39.0,29.38,NW,313,0.0,-999.0,85,-99.99,,,0.00,weatherlink.com 1.10,2013-05-15 03:14:00,
2013-05-15 04:29:00,42.7,39.0,29.38,NW,317,0.0,-999.0,85,-99.99,,,0.00,weatherlink.com 1.10,2013-05-15 03:29:00,
2013-05-15 04:44:00,42.9,39.0,29.38,WNW,298,0.0,-999.0,85,-99.99,,,0.00,weatherlink.com 1.10,2013-05-15 03:44:00,
2013-05-15 04:59:00,43.1,39.0,29.38,WNW,298,0.0,-999.0,85,-99.99,,,0.00,weatherlink.com 1.10,2013-05-15 03:59:00,
2013-05-15 05:14:00,43.2,39.0,29.37,WNW,299,0.0,-999.0,85,-99.99,,,0.00,weatherlink.com 1.10,2013-05-15 04:14:00,
2013-05-15 05:29:00,43.2,39.0,29.37,WNW,288,0.0,-999.0,85,-99.99,,,0.00,weatherlink.com 1.10,2013-05-15 04:29:00,
2013-05-15 05:44:00,43.4,39.0,29.38,West,281,0.0,-999.0,84,-99.99,,,0.00,weatherlink.com 1.10,2013-05-15 04:44:00,
2013-05-15 05:59:00,43.4,39.0,29.38,NW,305,0.0,-999.0,83,-99.99,,,0.00,weatherlink.com 1.10,2013-05-15 04:59:00,
2013-05-15 06:14:00,43.5,39.0,29.39,WNW,297,0.0,-999.0,84,-99.99,,,0.00,weatherlink.com 1.10,2013-05-15 05:14:00,
2013-05-15 06:29:00,43.7,39.0,29.39,WNW,299,0.0,-999.0,83,-99.99,,,0.00,weatherlink.com 1.10,2013-05-15 05:29:00,
2013-05-15 06:44:00,43.9,39.0,29.39,WNW,290,0.0,-999.0,83,-99.99,,,0.00,weatherlink.com 1.10,2013-05-15 05:44:00,
2013-05-15 06:59:00,44.0,39.0,29.39,NW,323,0.0,-999.0,83,-99.99,,,0.00,weatherlink.com 1.10,2013-05-15 05:59:00,
2013-05-15 07:14:00,44.4,39.0,29.39,WNW,294,0.0,-999.0,82,-99.99,,,0.00,weatherlink.com 1.10,2013-05-15 06:14:00,
2013-05-15 07:29:00,44.5,39.0,29.39,WNW,287,0.0,-999.0,81,-99.99,,,0.00,weatherlink.com 1.10,2013-05-15 06:29:00,
2013-05-15 07:44:00,44.7,39.0,29.40,NW,308,0.0,-999.0,80,-99.99,,,0.00,weatherlink.com 1.10,2013-05-15 06:44:00,
2013-05-15 07:59:00,45.4,40.0,29.39,WNW,288,0.0,-999.0,80,-99.99,,,0.00,weatherlink.com 1.10,2013-05-15 06:59:00,
2013-05-15 08:14:00,46.0,40.0,29.40,NW,304,0.0,-999.0,78,-99.99,,,0.00,weatherlink.com 1.10,2013-05-15 07:14:00,
2013-05-15 08:29:00,46.4,40.0,29.41,North,351,0.0,-999.0,77,-99.99,,,0.00,weatherlink.com 1.10,2013-05-15 07:29:00,
2013-05-15 08:44:00,46.8,40.0,29.41,WNW,297,0.0,-999.0,76,-99.99,,,0.00,weatherlink.com 1.10,2013-05-15 07:44:00,
2013-05-15 08:59:00,46.9,40.0,29.41,NW,305,0.0,-999.0,77,-99.99,,,0.00,weatherlink.com 1.10,2013-05-15 07:59:00,
2013-05-15 09:14:00,48.1,40.0,29.41,West,278,0.0,-999.0,74,-99.99,,,0.00,weatherlink.com 1.10,2013-05-15 08:14:00,
2013-05-15 09:29:00,48.0,40.0,29.42,NNE,17,0.0,-999.0,74,-99.99,,,0.00,weatherlink.com 1.10,2013-05-15 08:29:00,
2013-05-15 09:44:00,48.2,40.0,29.42,NNW,333,0.0,-999.0,72,-99.99,,,0.00,weatherlink.com 1.10,2013-05-15 08:44:00,
2013-05-15 09:59:00,48.2,40.0,29.42,NNW,337,0.0,-999.0,73,-99.99,,,0.00,weatherlink.com 1.10,2013-05-15 08:59:00,
2013-05-15 10:14:00,48.6,40.0,29.42,NW,314,0.0,-999.0,71,-99.99,,,0.00,weatherlink.com 1.10,2013-05-15 09:14:00,
2013-05-15 10:29:00,49.2,39.0,29.42,NW,314,0.0,-999.0,68,-99.99,,,0.00,weatherlink.com 1.10,2013-05-15 09:29:00,
2013-05-15 10:44:00,49.7,41.0,29.43,North,350,0.0,-999.0,71,-99.99,,,0.00,weatherlink.com 1.10,2013-05-15 09:44:00,
2013-05-15 10:59:00,49.1,42.0,29.43,West,273,0.0,-999.0,76,-99.99,,,0.00,weatherlink.com 1.10,2013-05-15 09:59:00,
2013-05-15 11:14:00,49.1,40.0,29.43,NNW,334,0.0,-999.0,72,-99.99,,,0.00,weatherlink.com 1.10,2013-05-15 10:14:00,
2013-05-15 11:29:00,47.8,41.0,29.43,NNW,338,0.0,-999.0,78,-99.99,,,0.00,weatherlink.com 1.10,2013-05-15 10:29:00,
2013-05-15 11:44:00,48.9,41.0,29.43,WNW,298,0.0,-999.0,75,-99.99,,,0.00,weatherlink.com 1.10,2013-05-15 10:44:00,
2013-05-15 11:59:00,49.7,40.0,29.42,NNE,20,0.0,-999.0,69,-99.99,,,0.00,weatherlink.com 1.10,2013-05-15 10:59:00,
2013-05-15 12:14:00,50.6,40.0,29.42,NW,306,0.0,-999.0,67,-99.99,,,0.00,weatherlink.com 1.10,2013-05-15 11:14:00,
2013-05-15 12:29:00,50.0,39.0,29.43,NNW,329,0.0,-999.0,67,-99.99,,,0.00,weatherlink.com 1.10,2013-05-15 11:29:00,
2013-05-15 12:44:00,50.2,40.0,29.43,West,279,0.0,-999.0,69,-99.99,,,0.00,weatherlink.com 1.10,2013-05-15 11:44:00,
2013-05-15 13:14:00,50.5,40.0,29.43,NNW,341,0.0,-999.0,68,-99.99,,,0.00,weatherlink.com 1.10,2013-05-15 12:14:00,
2013-05-15 13:29:00,49.6,41.0,29.43,WNW,298,0.0,-999.0,72,-99.99,,,0.01,weatherlink.com 1.10,2013-05-15 12:29:00,
2013-05-15 13:44:00,49.2,41.0,29.43,WNW,291,0.0,-999.0,72,-99.99,,,0.01,weatherlink.com 1.10,2013-05-15 12:44:00,
2013-05-15 13:59:00,51.3,41.0,29.43,NNW,329,0.0,-999.0,67,-99.99,,,0.01,weatherlink.com 1.10,2013-05-15 12:59:00,
2013-05-15 14:14:00,52.5,39.0,29.42,NW,321,0.0,-999.0,61,-99.99,,,0.01,weatherlink.com 1.10,2013-05-15 13:14:00,
2013-05-15 14:29:00,53.3,39.0,29.42,NW,307,0.0,-999.0,58,-99.99,,,0.01,weatherlink.com 1.10,2013-05-15 13:29:00,
2013-05-15 14:44:00,53.9,37.0,29.42,WNW,288,0.0,-999.0,53,-99.99,,,0.01,weatherlink.com 1.10,2013-05-15 13:44:00,
2013-05-15 14:59:00,52.6,39.0,29.43,NNW,327,0.0,-999.0,60,-99.99,,,0.01,weatherlink.com 1.10,2013-05-15 13:59:00,
2013-05-15 15:15:00,51.8,39.0,29.44,NE,36,0.0,-999.0,61,-99.99,,,0.01,weatherlink.com 1.10,2013-05-15 14:15:00,
2013-05-15 15:44:00,49.3,41.0,29.45,WNW,300,0.0,-999.0,73,-99.99,,,0.01,weatherlink.com 1.10,2013-05-15 14:44:00,
2013-05-15 15:59:00,50.1,41.0,29.45,NW,319,0.0,-999.0,70,-99.99,,,0.01,weatherlink.com 1.10,2013-05-15 14:59:00,
2013-05-15 16:14:00,51.5,40.0,29.45,North,11,0.0,-999.0,66,-99.99,,,0.01,weatherlink.com 1.10,2013-05-15 15:14:00,
2013-05-15 16:44:00,52.4,38.0,29.45,NNW,342,0.0,-999.0,59,-99.99,,,0.01,weatherlink.com 1.10,2013-05-15 15:44:00,
2013-05-15 17:14:00,50.7,39.0,29.46,NW,317,0.0,-999.0,65,-99.99,,,0.01,weatherlink.com 1.10,2013-05-15 16:14:00,
2013-05-15 17:29:00,48.7,40.0,29.46,NW,320,0.0,-999.0,73,-99.99,,,0.01,weatherlink.com 1.10,2013-05-15 16:29:00,
2013-05-15 17:44:00,49.4,41.0,29.46,NW,317,0.0,-999.0,72,-99.99,,,0.01,weatherlink.com 1.10,2013-05-15 16:44:00,
2013-05-15 18:14:00,49.0,39.0,29.47,West,281,0.0,-999.0,68,-99.99,,,0.02,weatherlink.com 1.10,2013-05-15 17:14:00,
2013-05-15 18:30:00,47.3,40.0,29.47,NW,309,0.0,-999.0,75,-99.99,,,0.02,weatherlink.com 1.10,2013-05-15 17:30:00,
2013-05-15 18:45:00,46.7,40.0,29.47,North,355,0.0,-999.0,76,-99.99,,,0.02,weatherlink.com 1.10,2013-05-15 17:45:00,
2013-05-15 19:00:00,46.8,40.0,29.47,NW,316,0.0,-999.0,76,-99.99,,,0.02,weatherlink.com 1.10,2013-05-15 18:00:00,
2013-05-15 19:15:00,47.2,40.0,29.47,WNW,302,0.0,-999.0,75,-99.99,,,0.02,weatherlink.com 1.10,2013-05-15 18:15:00,
2013-05-15 19:30:00,48.1,39.0,29.47,WSW,255,0.0,-999.0,72,-99.99,,,0.02,weatherlink.com 1.10,2013-05-15 18:30:00,
2013-05-15 19:45:00,48.9,39.0,29.48,WNW,284,0.0,-999.0,68,-99.99,,,0.02,weatherlink.com 1.10,2013-05-15 18:45:00,
2013-05-15 20:00:00,48.6,38.0,29.48,NW,310,0.0,-999.0,68,-99.99,,,0.02,weatherlink.com 1.10,2013-05-15 19:00:00,
2013-05-15 20:15:00,49.1,38.0,29.47,WNW,302,0.0,-999.0,65,-99.99,,,0.02,weatherlink.com 1.10,2013-05-15 19:15:00,
2013-05-15 20:30:00,49.1,37.0,29.48,WNW,294,0.0,-999.0,64,-99.99,,,0.02,weatherlink.com 1.10,2013-05-15 19:30:00,
2013-05-15 21:30:00,47.7,37.0,29.49,NW,321,0.0,-999.0,66,-99.99,,,0.02,weatherlink.com 1.10,2013-05-15 20:30:00,
2013-05-15 21:45:00,47.4,37.0,29.48,NW,310,0.0,-999.0,68,-99.99,,,0.02,weatherlink.com 1.10,2013-05-15 20:45:00,
2013-05-15 22:00:00,47.0,37.0,29.49,NW,306,0.0,-999.0,68,-99.99,,,0.02,weatherlink.com 1.10,2013-05-15 21:00:00,
2013-05-15 22:30:00,46.4,36.0,29.49,WNW,292,0.0,-999.0,67,-99.99,,,0.02,weatherlink.com 1.10,2013-05-15 21:30:00,
2013-05-15 23:00:00,45.6,36.0,29.49,NW,306,0.0,-999.0,68,-99.99,,,0.02,weatherlink.com 1.10,2013-05-15 22:00:00,
2013-05-15 23:15:00,45.5,36.0,29.48,West,266,0.0,-999.0,69,-99.99,,,0.02,weatherlink.com 1.10,2013-05-15 22:15:00,
2013-05-15 23:30:00,45.6,36.0,29.48,West,274,0.0,-999.0,70,-99.99,,,0.02,weatherlink.com 1.10,2013-05-15 22:30:00,
2013-05-15 23:45:00,45.4,36.0,29.48,West,267,0.0,-999.0,71,-99.99,,,0.02,weatherlink.com 1.10,2013-05-15 22:45:00,